createdAt,value
2019-01-24T00:00:52.691Z,64.69
2019-01-24T00:03:19.812Z,64.86
2019-01-24T00:05:46.889Z,65.00
2019-01-24T00:08:14.049Z,64.98
2019-01-24T00:10:41.273Z,64.88
2019-01-24T00:13:08.714Z,65.15
2019-01-24T00:15:36.184Z,65.32
2019-01-24T00:18:03.404Z,65.24
2019-01-24T00:20:30.475Z,65.43
2019-01-24T00:22:57.632Z,65.50
2019-01-24T00:25:24.832Z,65.70
2019-01-24T00:27:51.980Z,65.45
2019-01-24T00:30:19.159Z,65.61
2019-01-24T00:32:46.507Z,65.59
2019-01-24T00:35:14.158Z,65.88
2019-01-24T00:37:41.205Z,66.08
2019-01-24T00:40:10.308Z,66.04
2019-01-24T00:42:37.468Z,66.24
2019-01-24T00:45:05.808Z,66.23
2019-01-24T00:47:33.326Z,66.23
2019-01-24T00:50:00.507Z,65.95
2019-01-24T00:52:27.705Z,65.80
2019-01-24T00:54:54.818Z,65.87
2019-01-24T00:57:21.956Z,65.86
2019-01-24T00:59:49.134Z,65.81
2019-01-24T01:02:16.664Z,65.63
2019-01-24T01:04:43.920Z,65.61
2019-01-24T01:07:11.654Z,65.44
2019-01-24T01:09:38.862Z,65.43
2019-01-24T01:12:06.431Z,65.24
2019-01-24T01:14:33.536Z,65.13
2019-01-24T01:17:00.747Z,65.54
2019-01-24T01:19:28.126Z,65.78
2019-01-24T01:21:55.333Z,65.65
2019-01-24T01:24:22.511Z,65.73
2019-01-24T01:26:49.699Z,65.77
2019-01-24T01:29:16.885Z,65.95
2019-01-24T01:31:44.059Z,65.94
2019-01-24T01:34:11.243Z,66.11
2019-01-24T01:36:38.449Z,66.14
2019-01-24T01:39:07.731Z,65.71
2019-01-24T01:41:34.913Z,65.49
2019-01-24T01:44:02.091Z,65.37
2019-01-24T01:46:29.324Z,65.37
2019-01-24T01:48:56.545Z,65.53
2019-01-24T01:51:23.729Z,65.56
2019-01-24T01:53:50.973Z,65.65
2019-01-24T01:56:18.038Z,65.64
2019-01-24T01:58:45.493Z,65.63
2019-01-24T02:01:12.577Z,65.43
2019-01-24T02:03:39.750Z,65.25
2019-01-24T02:06:06.839Z,65.29
2019-01-24T02:08:34.675Z,65.29
2019-01-24T02:11:01.843Z,65.18
2019-01-24T02:13:29.133Z,65.10
2019-01-24T02:15:56.309Z,65.33
2019-01-24T02:18:23.518Z,65.43
2019-01-24T02:20:50.594Z,65.46
2019-01-24T02:23:18.086Z,65.75
2019-01-24T02:25:45.198Z,65.87
2019-01-24T02:28:12.360Z,65.52
2019-01-24T02:30:39.580Z,65.22
2019-01-24T02:33:06.746Z,65.39
2019-01-24T02:35:33.846Z,65.86
2019-01-24T02:38:00.942Z,66.02
2019-01-24T02:40:28.117Z,66.26
2019-01-24T02:42:55.203Z,66.47
2019-01-24T02:45:23.082Z,66.58
2019-01-24T02:47:50.154Z,66.43
2019-01-24T02:50:18.433Z,65.83
2019-01-24T02:52:45.640Z,65.80
2019-01-24T02:55:13.743Z,66.26
2019-01-24T02:57:40.932Z,66.52
2019-01-24T03:00:10.030Z,66.25
2019-01-24T03:02:37.328Z,66.21
2019-01-24T03:05:06.520Z,66.22
2019-01-24T03:07:34.082Z,66.71
2019-01-24T03:10:01.279Z,66.84
2019-01-24T03:12:28.448Z,66.56
2019-01-24T03:14:55.631Z,66.09
2019-01-24T03:17:22.840Z,65.60
2019-01-24T03:19:49.901Z,66.16
2019-01-24T03:22:17.111Z,66.64
2019-01-24T03:24:44.171Z,67.00
2019-01-24T03:27:11.428Z,67.08
2019-01-24T03:29:38.644Z,66.79
2019-01-24T03:32:06.191Z,66.55
2019-01-24T03:34:33.352Z,66.34
2019-01-24T03:37:00.595Z,66.43
2019-01-24T03:39:27.755Z,67.06
2019-01-24T03:41:54.918Z,66.96
2019-01-24T03:44:22.124Z,66.99
2019-01-24T03:46:49.286Z,67.12
2019-01-24T03:49:16.428Z,67.04
2019-01-24T03:51:43.666Z,67.25
2019-01-24T03:54:10.821Z,67.28
2019-01-24T03:56:38.015Z,66.99
2019-01-24T03:59:05.212Z,66.58
2019-01-24T04:01:32.323Z,66.72
2019-01-24T04:03:59.776Z,66.89
2019-01-24T04:06:26.887Z,66.73
2019-01-24T04:08:54.349Z,66.82
2019-01-24T04:11:21.558Z,66.98
2019-01-24T04:13:48.644Z,66.83
2019-01-24T04:16:15.867Z,66.77
2019-01-24T04:18:43.048Z,66.85
2019-01-24T04:21:10.307Z,66.72
2019-01-24T04:23:37.445Z,66.86
2019-01-24T04:26:04.634Z,66.98
2019-01-24T04:28:33.414Z,67.27
2019-01-24T04:31:00.733Z,67.20
2019-01-24T04:33:27.895Z,66.74
2019-01-24T04:35:55.042Z,66.73
2019-01-24T04:38:22.215Z,66.39
2019-01-24T04:40:49.382Z,66.46
2019-01-24T04:43:16.501Z,66.49
2019-01-24T04:45:43.651Z,66.82
2019-01-24T04:48:10.703Z,67.05
2019-01-24T04:50:39.711Z,67.02
2019-01-24T04:53:06.909Z,67.15
2019-01-24T04:55:34.387Z,67.13
2019-01-24T04:58:01.761Z,67.12
2019-01-24T05:00:29.867Z,67.07
2019-01-24T05:02:57.070Z,66.99
2019-01-24T05:05:27.876Z,67.06
2019-01-24T05:07:53.464Z,67.20
2019-01-24T05:10:20.619Z,67.23
2019-01-24T05:12:47.833Z,67.46
2019-01-24T05:15:15.035Z,67.88
2019-01-24T05:17:42.384Z,68.04
2019-01-24T05:20:10.025Z,68.04
2019-01-24T05:22:37.468Z,68.08
2019-01-24T05:25:06.323Z,68.38
2019-01-24T05:27:33.557Z,68.18
2019-01-24T05:30:00.597Z,68.58
2019-01-24T05:32:27.772Z,68.87
2019-01-24T05:34:54.974Z,68.59
2019-01-24T05:37:22.162Z,68.21
2019-01-24T05:39:49.357Z,68.56
2019-01-24T05:42:16.548Z,68.08
2019-01-24T05:44:43.717Z,68.31
2019-01-24T05:47:11.240Z,68.80
2019-01-24T05:49:38.413Z,68.57
2019-01-24T05:52:05.639Z,68.60
2019-01-24T05:54:32.822Z,68.44
2019-01-24T05:57:00.051Z,68.52
2019-01-24T05:59:27.247Z,68.38
2019-01-24T06:01:54.882Z,68.31
2019-01-24T06:04:22.251Z,68.50
2019-01-24T06:06:49.317Z,68.58
2019-01-24T06:09:16.496Z,68.28
2019-01-24T06:11:43.624Z,68.26
2019-01-24T06:14:10.784Z,68.41
2019-01-24T06:16:37.979Z,68.23
2019-01-24T06:19:05.152Z,68.18
2019-01-24T06:21:32.398Z,68.11
2019-01-24T06:23:59.480Z,68.36
2019-01-24T06:26:26.707Z,68.25
2019-01-24T06:28:53.855Z,68.12
2019-01-24T06:31:21.047Z,68.06
2019-01-24T06:33:48.283Z,68.18
2019-01-24T06:36:15.773Z,68.36
2019-01-24T06:38:42.983Z,68.26
2019-01-24T06:41:10.164Z,68.57
2019-01-24T06:43:37.341Z,68.37
2019-01-24T06:46:04.595Z,68.13
2019-01-24T06:48:31.801Z,67.86
2019-01-24T06:50:58.856Z,67.80
2019-01-24T06:53:26.002Z,67.94
2019-01-24T06:55:53.194Z,68.01
2019-01-24T06:58:20.372Z,68.00
2019-01-24T07:00:47.570Z,67.58
2019-01-24T07:03:14.677Z,67.64
2019-01-24T07:05:41.807Z,67.87
2019-01-24T07:08:08.974Z,67.70
2019-01-24T07:10:36.464Z,67.56
2019-01-24T07:13:03.964Z,67.50
2019-01-24T07:15:31.557Z,67.74
2019-01-24T07:17:58.683Z,67.62
2019-01-24T07:20:26.185Z,67.70
2019-01-24T07:22:53.347Z,67.64
2019-01-24T07:25:22.735Z,67.46
2019-01-24T07:27:49.973Z,67.12
2019-01-24T07:30:17.360Z,67.12
2019-01-24T07:32:45.497Z,67.40
2019-01-24T07:35:13.800Z,67.53
2019-01-24T07:37:40.972Z,67.59
2019-01-24T07:40:10.442Z,67.83
2019-01-24T07:42:37.967Z,67.46
2019-01-24T07:45:09.301Z,67.42
2019-01-24T07:47:36.547Z,66.99
2019-01-24T07:50:04.916Z,67.01
2019-01-24T07:52:32.150Z,67.16
2019-01-24T07:54:59.364Z,67.22
2019-01-24T07:57:26.595Z,66.79
2019-01-24T07:59:53.816Z,66.66
2019-01-24T08:02:21.045Z,66.03
2019-01-24T08:04:48.201Z,65.70
2019-01-24T08:07:15.388Z,65.66
2019-01-24T08:09:42.578Z,65.87
2019-01-24T08:12:09.771Z,66.34
2019-01-24T08:14:36.986Z,65.93
2019-01-24T08:17:04.245Z,65.70
2019-01-24T08:19:31.420Z,65.27
2019-01-24T08:21:58.480Z,65.65
2019-01-24T08:24:25.698Z,65.77
2019-01-24T08:26:52.877Z,65.21
2019-01-24T08:29:20.052Z,65.39
2019-01-24T08:31:47.185Z,65.18
2019-01-24T08:34:14.252Z,65.09
2019-01-24T08:36:41.420Z,65.01
2019-01-24T08:39:08.850Z,65.03
2019-01-24T08:41:35.998Z,65.06
2019-01-24T08:44:03.200Z,64.66
2019-01-24T08:46:30.410Z,64.98
2019-01-24T08:48:57.577Z,65.22
2019-01-24T08:51:24.769Z,65.13
2019-01-24T08:53:51.890Z,65.29
2019-01-24T08:56:19.066Z,65.73
2019-01-24T08:58:46.181Z,66.05
2019-01-24T09:01:13.373Z,66.16
2019-01-24T09:03:40.535Z,66.19
2019-01-24T09:06:07.799Z,65.65
2019-01-24T09:08:35.006Z,65.69
2019-01-24T09:11:02.159Z,64.94
2019-01-24T09:13:29.377Z,65.30
2019-01-24T09:15:56.555Z,65.82
2019-01-24T09:18:23.712Z,66.41
2019-01-24T09:20:50.821Z,66.75
2019-01-24T09:23:18.619Z,65.87
2019-01-24T09:25:45.784Z,66.33
2019-01-24T09:28:15.033Z,66.45
2019-01-24T09:30:42.383Z,65.76
2019-01-24T09:33:09.579Z,65.91
2019-01-24T09:39:11.085Z,65.11
2019-01-24T09:41:38.340Z,65.44
2019-01-24T09:44:05.554Z,64.91
2019-01-24T09:46:32.790Z,63.72
2019-01-24T09:48:59.942Z,64.32
2019-01-24T09:51:27.136Z,63.97
2019-01-24T09:53:54.380Z,64.12
2019-01-24T09:56:21.796Z,64.21
2019-01-24T09:58:49.294Z,63.70
2019-01-24T10:01:16.460Z,63.51
2019-01-24T10:03:43.621Z,62.91
2019-01-24T10:06:10.702Z,62.46
2019-01-24T10:08:38.225Z,63.08
2019-01-24T10:11:05.735Z,63.12
2019-01-24T10:13:32.936Z,63.89
2019-01-24T10:16:00.426Z,62.68
2019-01-24T10:18:27.589Z,62.46
2019-01-24T10:20:54.800Z,62.31
2019-01-24T10:23:22.056Z,62.37
2019-01-24T10:25:49.273Z,63.68
2019-01-24T10:28:16.481Z,63.00
2019-01-24T10:30:43.649Z,61.83
2019-01-24T10:33:10.815Z,61.55
2019-01-24T10:35:38.090Z,61.45
2019-01-24T10:38:05.191Z,60.22
2019-01-24T10:40:32.836Z,59.65
2019-01-24T10:43:00.102Z,59.81
2019-01-24T10:45:27.359Z,60.65
2019-01-24T10:47:54.730Z,60.80
2019-01-24T10:50:22.757Z,61.40
2019-01-24T10:52:49.977Z,61.38
2019-01-24T10:55:18.966Z,60.09
2019-01-24T10:57:46.141Z,60.61
2019-01-24T11:00:31.819Z,60.48
2019-01-24T11:02:59.043Z,60.90
2019-01-24T11:05:26.239Z,61.28
2019-01-24T11:07:53.423Z,61.67
2019-01-24T11:10:20.939Z,62.30
2019-01-24T11:12:48.150Z,61.37
2019-01-24T11:15:17.175Z,61.58
2019-01-24T11:17:44.252Z,61.90
2019-01-24T11:20:12.081Z,61.60
2019-01-24T11:22:39.447Z,61.87
2019-01-24T11:25:08.822Z,60.87
2019-01-24T11:27:35.994Z,60.04
2019-01-24T11:30:04.736Z,58.86
2019-01-24T11:32:31.932Z,58.53
2019-01-24T11:34:59.376Z,58.12
2019-01-24T11:37:26.583Z,57.93
2019-01-24T11:39:53.735Z,57.02
2019-01-24T11:42:20.964Z,56.01
2019-01-24T11:44:48.167Z,56.21
2019-01-24T11:47:15.384Z,55.09
2019-01-24T11:49:42.543Z,55.71
2019-01-24T11:52:09.748Z,56.34
2019-01-24T11:54:36.935Z,55.56
2019-01-24T11:57:04.727Z,56.03
2019-01-24T11:59:31.927Z,55.30
2019-01-24T12:01:59.133Z,54.70
2019-01-24T12:04:26.623Z,55.52
2019-01-24T12:06:53.857Z,55.00
2019-01-24T12:09:21.015Z,55.18
2019-01-24T12:11:48.408Z,54.67
2019-01-24T12:14:15.871Z,55.31
2019-01-24T12:16:43.089Z,55.16
2019-01-24T12:19:10.238Z,54.19
2019-01-24T12:21:37.417Z,53.94
2019-01-24T12:24:04.631Z,53.66
2019-01-24T12:26:31.805Z,53.43
2019-01-24T12:28:59.076Z,53.94
2019-01-24T12:31:26.256Z,53.93
2019-01-24T12:33:53.434Z,53.79
2019-01-24T12:36:20.624Z,54.08
2019-01-24T12:38:47.834Z,54.31
2019-01-24T12:41:15.022Z,54.02
2019-01-24T12:43:42.952Z,53.96
2019-01-24T12:46:10.180Z,53.63
2019-01-24T12:48:37.658Z,53.94
2019-01-24T12:51:04.854Z,55.08
2019-01-24T12:53:31.978Z,54.68
2019-01-24T12:55:59.146Z,54.14
2019-01-24T12:58:26.478Z,53.91
2019-01-24T13:00:53.665Z,53.84
2019-01-24T13:03:20.973Z,54.28
2019-01-24T13:05:48.318Z,54.48
2019-01-24T13:08:15.558Z,54.48
2019-01-24T13:10:42.709Z,54.71
2019-01-24T13:13:09.997Z,54.93
2019-01-24T13:15:37.905Z,55.65
2019-01-24T13:18:05.221Z,56.92
2019-01-24T13:20:32.325Z,58.09
2019-01-24T13:23:00.768Z,58.19
2019-01-24T13:25:30.027Z,58.07
2019-01-24T13:27:57.302Z,57.87
2019-01-24T13:30:26.317Z,57.07
2019-01-24T13:32:53.612Z,57.46
2019-01-24T13:35:20.754Z,57.92
2019-01-24T13:37:47.974Z,58.68
2019-01-24T13:40:17.364Z,58.89
2019-01-24T13:42:44.602Z,59.25
2019-01-24T13:45:15.053Z,59.15
2019-01-24T13:47:42.164Z,59.05
2019-01-24T13:50:11.756Z,59.49
2019-01-24T13:52:39.247Z,59.57
2019-01-24T13:55:06.616Z,59.51
2019-01-24T13:57:34.178Z,59.85
2019-01-24T14:00:01.392Z,59.62
2019-01-24T14:02:28.804Z,59.61
2019-01-24T14:04:56.000Z,59.51
2019-01-24T14:07:23.520Z,59.57
2019-01-24T14:09:51.063Z,59.70
2019-01-24T14:12:18.633Z,60.07
2019-01-24T14:14:45.852Z,60.25
2019-01-24T14:17:12.946Z,60.49
2019-01-24T14:19:40.147Z,60.81
2019-01-24T14:22:07.300Z,60.82
2019-01-24T14:24:34.488Z,61.02
2019-01-24T14:27:01.721Z,61.03
2019-01-24T14:29:28.905Z,61.28
2019-01-24T14:31:56.412Z,61.42
2019-01-24T14:34:23.624Z,61.68
2019-01-24T14:36:50.891Z,62.36
2019-01-24T14:39:18.081Z,63.03
2019-01-24T14:41:45.306Z,63.59
2019-01-24T14:44:12.477Z,63.75
2019-01-24T14:46:39.656Z,64.00
2019-01-24T14:49:06.925Z,64.32
2019-01-24T14:51:34.096Z,64.29
2019-01-24T14:54:01.296Z,64.12
2019-01-24T14:56:28.483Z,64.94
2019-01-24T14:58:56.124Z,65.68
2019-01-24T15:01:25.337Z,65.91
2019-01-24T15:03:52.748Z,65.80
2019-01-24T15:06:20.167Z,66.37
2019-01-24T15:08:47.646Z,67.22
2019-01-24T15:11:14.857Z,67.76
2019-01-24T15:13:42.250Z,68.02
2019-01-24T15:16:09.430Z,68.16
2019-01-24T15:18:36.644Z,68.63
2019-01-24T15:21:03.852Z,69.15
2019-01-24T15:23:31.096Z,69.33
2019-01-24T15:25:58.319Z,68.00
2019-01-24T15:28:25.530Z,68.18
2019-01-24T15:30:52.816Z,68.64
2019-01-24T15:33:19.899Z,67.99
2019-01-24T15:35:47.144Z,67.64
2019-01-24T15:38:14.356Z,68.35
2019-01-24T15:40:41.442Z,68.99
2019-01-24T15:43:09.273Z,69.38
2019-01-24T15:45:36.559Z,69.50
2019-01-24T15:48:05.644Z,69.59
2019-01-24T15:50:32.771Z,69.82
2019-01-24T15:52:59.977Z,70.26
2019-01-24T15:55:27.170Z,70.66
2019-01-24T15:57:54.656Z,70.91
2019-01-24T16:00:23.912Z,70.90
2019-01-24T16:02:51.423Z,70.95
2019-01-24T16:05:18.619Z,70.90
2019-01-24T16:07:46.052Z,70.84
2019-01-24T16:10:15.265Z,70.71
2019-01-24T16:12:42.444Z,70.66
2019-01-24T16:15:12.516Z,70.76
2019-01-24T16:17:39.624Z,70.64
2019-01-24T16:20:10.004Z,70.50
2019-01-24T16:22:37.235Z,70.42
2019-01-24T16:25:04.903Z,70.71
2019-01-24T16:27:32.039Z,70.97
2019-01-24T16:29:59.245Z,71.16
2019-01-24T16:32:26.362Z,71.23
2019-01-24T16:34:53.557Z,71.76
2019-01-24T16:37:20.888Z,72.02
2019-01-24T16:39:48.128Z,72.27
2019-01-24T16:42:15.336Z,72.25
2019-01-24T16:44:42.528Z,71.36
2019-01-24T16:47:09.776Z,71.30
2019-01-24T16:49:36.998Z,71.28
2019-01-24T16:52:04.257Z,71.82
2019-01-24T16:54:31.492Z,72.11
2019-01-24T16:56:58.936Z,72.49
2019-01-24T16:59:26.154Z,72.72
2019-01-24T17:01:53.699Z,72.20
2019-01-24T17:04:20.870Z,72.43
2019-01-24T17:06:48.348Z,72.28
2019-01-24T17:09:15.434Z,72.63
2019-01-24T17:11:42.585Z,73.02
2019-01-24T17:14:09.722Z,73.15
2019-01-24T17:16:36.911Z,73.14
2019-01-24T17:19:04.403Z,72.77
2019-01-24T17:21:31.607Z,72.50
2019-01-24T17:23:58.714Z,73.17
2019-01-24T17:26:25.919Z,73.53
2019-01-24T17:28:53.113Z,73.54
2019-01-24T17:31:20.339Z,72.97
2019-01-24T17:33:47.526Z,72.09
2019-01-24T17:36:14.740Z,72.03
2019-01-24T17:38:42.050Z,72.76
2019-01-24T17:41:09.289Z,73.36
2019-01-24T17:43:36.475Z,73.79
2019-01-24T17:46:04.239Z,74.06
2019-01-24T17:48:31.764Z,73.95
2019-01-24T17:50:58.849Z,73.69
2019-01-24T17:53:26.393Z,73.62
2019-01-24T17:55:53.514Z,73.25
2019-01-24T17:58:20.750Z,72.89
2019-01-24T18:00:49.952Z,72.98
2019-01-24T18:03:17.031Z,73.21
2019-01-24T18:05:44.456Z,73.30
2019-01-24T18:08:11.712Z,73.21
2019-01-24T18:10:38.882Z,73.10
2019-01-24T18:13:06.097Z,73.13
2019-01-24T18:15:33.577Z,73.29
2019-01-24T18:18:01.109Z,73.19
2019-01-24T18:20:30.449Z,73.28
2019-01-24T18:22:58.091Z,73.28
2019-01-24T18:25:25.436Z,72.85
2019-01-24T18:27:52.649Z,72.54
2019-01-24T18:30:21.863Z,72.58
2019-01-24T18:32:49.141Z,72.49
2019-01-24T18:35:16.582Z,72.87
2019-01-24T18:37:43.681Z,73.05
2019-01-24T18:40:14.325Z,73.01
2019-01-24T18:42:41.520Z,73.01
2019-01-24T18:45:12.372Z,73.06
2019-01-24T18:47:39.439Z,73.26
2019-01-24T18:50:10.463Z,73.58
2019-01-24T18:52:37.991Z,73.69
2019-01-24T18:55:05.913Z,73.75
2019-01-24T18:57:33.205Z,73.89
2019-01-24T19:00:00.654Z,73.53
2019-01-24T19:02:28.139Z,73.21
2019-01-24T19:04:55.321Z,73.12
2019-01-24T19:07:22.563Z,73.14
2019-01-24T19:09:49.763Z,72.93
2019-01-24T19:12:16.981Z,72.91
2019-01-24T19:14:44.195Z,73.05
2019-01-24T19:17:11.712Z,73.28
2019-01-24T19:19:39.129Z,73.15
2019-01-24T19:22:06.726Z,72.99
2019-01-24T19:24:34.196Z,73.15
2019-01-24T19:27:01.351Z,73.32
2019-01-24T19:29:28.820Z,73.21
2019-01-24T19:31:56.109Z,73.25
2019-01-24T19:34:23.344Z,73.35
2019-01-24T19:36:50.619Z,73.45
2019-01-24T19:39:17.813Z,73.66
2019-01-24T19:41:45.033Z,73.77
2019-01-24T19:44:15.794Z,73.06
2019-01-24T19:46:41.390Z,72.89
2019-01-24T19:49:08.591Z,72.32
2019-01-24T19:51:35.918Z,72.45
2019-01-24T19:54:03.497Z,72.90
2019-01-24T19:56:30.797Z,72.88
2019-01-24T19:58:58.026Z,73.32
2019-01-24T20:01:25.485Z,73.63
2019-01-24T20:03:52.645Z,73.75
2019-01-24T20:06:20.083Z,74.02
2019-01-24T20:08:47.307Z,73.75
2019-01-24T20:11:14.515Z,72.99
2019-01-24T20:13:42.902Z,72.83
2019-01-24T20:16:10.191Z,73.06
2019-01-24T20:18:37.449Z,73.22
2019-01-24T20:21:04.959Z,73.07
2019-01-24T20:23:32.156Z,72.85
2019-01-24T20:25:59.368Z,72.98
2019-01-24T20:28:26.570Z,72.50
2019-01-24T20:30:53.806Z,72.56
2019-01-24T20:33:21.026Z,72.59
2019-01-24T20:35:54.055Z,72.90
2019-01-24T20:38:21.241Z,73.14
2019-01-24T20:40:48.479Z,73.13
2019-01-24T20:43:16.324Z,73.08
2019-01-24T20:45:43.551Z,73.00
2019-01-24T20:48:10.755Z,73.02
2019-01-24T20:50:37.975Z,72.80
2019-01-24T20:53:05.322Z,72.60
2019-01-24T20:55:32.574Z,72.31
2019-01-24T20:58:00.688Z,71.22
2019-01-24T21:00:28.609Z,70.63
2019-01-24T21:02:55.730Z,70.12
2019-01-24T21:05:23.350Z,70.24
2019-01-24T21:07:50.848Z,68.77
2019-01-24T21:10:20.209Z,66.94
2019-01-24T21:12:47.696Z,65.98
2019-01-24T21:15:15.502Z,65.42
2019-01-24T21:17:42.610Z,65.50
2019-01-24T21:20:12.655Z,65.35
2019-01-24T21:22:39.847Z,64.28
2019-01-24T21:25:08.773Z,64.18
2019-01-24T21:27:36.245Z,64.04
2019-01-24T21:30:05.171Z,64.01
2019-01-24T21:32:32.361Z,63.46
2019-01-24T21:34:59.470Z,61.97
2019-01-24T21:37:26.682Z,61.30
2019-01-24T21:39:54.251Z,61.03
2019-01-24T21:42:21.478Z,61.15
2019-01-24T21:44:48.689Z,61.44
2019-01-24T21:47:15.861Z,61.40
2019-01-24T21:49:43.387Z,61.00
2019-01-24T21:52:10.582Z,60.28
2019-01-24T21:54:37.756Z,60.22
2019-01-24T21:57:04.962Z,60.32
2019-01-24T21:59:33.500Z,60.27
2019-01-24T22:02:00.762Z,60.70
2019-01-24T22:04:27.978Z,60.87
2019-01-24T22:06:56.231Z,61.19
2019-01-24T22:09:29.169Z,61.30
2019-01-24T22:11:52.809Z,60.59
2019-01-24T22:14:20.048Z,60.71
2019-01-24T22:16:47.151Z,60.59
2019-01-24T22:19:14.379Z,60.82
2019-01-24T22:21:41.588Z,60.81
2019-01-24T22:24:08.788Z,60.72
2019-01-24T22:26:36.016Z,60.60
2019-01-24T22:29:03.858Z,60.61
2019-01-24T22:31:31.132Z,60.54
2019-01-24T22:33:58.330Z,61.00
2019-01-24T22:36:25.516Z,61.00
2019-01-24T22:38:52.698Z,60.81
2019-01-24T22:41:19.950Z,60.80
2019-01-24T22:43:47.113Z,60.48
2019-01-24T22:46:14.380Z,60.18
2019-01-24T22:48:41.761Z,60.20
2019-01-24T22:51:08.918Z,60.16
2019-01-24T22:53:36.019Z,60.17
2019-01-24T22:56:03.415Z,59.65
2019-01-24T22:58:30.487Z,59.94
2019-01-24T23:01:29.242Z,59.38
2019-01-24T23:04:11.594Z,59.22
2019-01-24T23:06:38.949Z,59.09
2019-01-24T23:09:08.615Z,59.15
2019-01-24T23:11:37.699Z,59.28
2019-01-24T23:14:05.574Z,59.10
2019-01-24T23:16:33.104Z,59.36
2019-01-24T23:19:00.713Z,59.56
2019-01-24T23:21:27.996Z,59.59
2019-01-24T23:23:55.203Z,59.67
2019-01-24T23:26:22.376Z,59.49
2019-01-24T23:28:49.597Z,59.46
2019-01-24T23:31:16.739Z,59.21
2019-01-24T23:33:43.950Z,59.05
2019-01-24T23:36:11.134Z,58.88
2019-01-24T23:38:38.323Z,58.47
2019-01-24T23:41:05.482Z,58.62
2019-01-24T23:43:33.037Z,59.12
2019-01-24T23:46:00.210Z,59.51
2019-01-24T23:48:27.390Z,59.23
2019-01-24T23:50:54.480Z,58.67
2019-01-24T23:53:21.715Z,58.58
2019-01-24T23:55:48.767Z,58.76
2019-01-24T23:58:16.304Z,58.71
